sensor_id;sensor_type;location;lat;lon;timestamp;pressure;altitude;pressure_sealevel;temperature
67353;BMP180;54238;52.278;21.056;2023-10-19T00:01:20;100035.60;;;5.00
67353;BMP180;54238;52.278;21.056;2023-10-19T00:03:56;100032.40;;;5.00
67353;BMP180;54238;52.278;21.056;2023-10-19T00:06:28;100027.60;;;5.10
67353;BMP180;54238;52.278;21.056;2023-10-19T00:08:55;100023.40;;;5.10
67353;BMP180;54238;52.278;21.056;2023-10-19T00:11:24;100013.60;;;5.10
67353;BMP180;54238;52.278;21.056;2023-10-19T00:13:53;100008.20;;;5.12
67353;BMP180;54238;52.278;21.056;2023-10-19T00:16:29;100007.00;;;5.20
67353;BMP180;54238;52.278;21.056;2023-10-19T00:18:59;100000.20;;;5.20
67353;BMP180;54238;52.278;21.056;2023-10-19T00:21:30;99996.20;;;5.18
67353;BMP180;54238;52.278;21.056;2023-10-19T00:24:03;99995.80;;;5.20
67353;BMP180;54238;52.278;21.056;2023-10-19T00:26:33;99990.40;;;5.16
67353;BMP180;54238;52.278;21.056;2023-10-19T00:29:03;99989.40;;;5.10
67353;BMP180;54238;52.278;21.056;2023-10-19T00:31:53;99981.80;;;5.10
67353;BMP180;54238;52.278;21.056;2023-10-19T00:34:27;99979.40;;;5.10
67353;BMP180;54238;52.278;21.056;2023-10-19T00:36:56;99985.20;;;5.10
67353;BMP180;54238;52.278;21.056;2023-10-19T00:39:26;99981.20;;;5.10
67353;BMP180;54238;52.278;21.056;2023-10-19T00:41:54;99980.40;;;5.10
67353;BMP180;54238;52.278;21.056;2023-10-19T00:44:26;99977.60;;;5.10
67353;BMP180;54238;52.278;21.056;2023-10-19T00:47:09;99975.80;;;5.10
67353;BMP180;54238;52.278;21.056;2023-10-19T00:49:42;99969.40;;;5.10
67353;BMP180;54238;52.278;21.056;2023-10-19T00:52:10;99972.60;;;5.10
67353;BMP180;54238;52.278;21.056;2023-10-19T00:54:40;99969.80;;;5.06
67353;BMP180;54238;52.278;21.056;2023-10-19T00:57:17;99966.00;;;5.02
67353;BMP180;54238;52.278;21.056;2023-10-19T00:59:48;99966.20;;;5.00
67353;BMP180;54238;52.278;21.056;2023-10-19T01:02:19;99967.40;;;5.00
67353;BMP180;54238;52.278;21.056;2023-10-19T01:04:57;99962.60;;;5.00
67353;BMP180;54238;52.278;21.056;2023-10-19T01:07:47;99957.60;;;4.90
67353;BMP180;54238;52.278;21.056;2023-10-19T01:10:28;99950.80;;;4.90
67353;BMP180;54238;52.278;21.056;2023-10-19T01:13:04;99951.00;;;4.90
67353;BMP180;54238;52.278;21.056;2023-10-19T01:15:33;99945.80;;;4.88
67353;BMP180;54238;52.278;21.056;2023-10-19T01:18:08;99940.20;;;4.82
67353;BMP180;54238;52.278;21.056;2023-10-19T01:20:41;99935.60;;;4.80
67353;BMP180;54238;52.278;21.056;2023-10-19T01:23:24;99938.00;;;4.80
67353;BMP180;54238;52.278;21.056;2023-10-19T01:26:01;99935.40;;;4.80
67353;BMP180;54238;52.278;21.056;2023-10-19T01:28:38;99934.40;;;4.80
67353;BMP180;54238;52.278;21.056;2023-10-19T01:34:02;99931.80;;;4.80
67353;BMP180;54238;52.278;21.056;2023-10-19T01:36:36;99930.60;;;4.80
67353;BMP180;54238;52.278;21.056;2023-10-19T01:39:11;99930.80;;;4.76
67353;BMP180;54238;52.278;21.056;2023-10-19T01:41:39;99927.80;;;4.70
67353;BMP180;54238;52.278;21.056;2023-10-19T01:44:08;99919.20;;;4.70
67353;BMP180;54238;52.278;21.056;2023-10-19T01:46:39;99913.20;;;4.70
67353;BMP180;54238;52.278;21.056;2023-10-19T01:49:09;99907.80;;;4.70
67353;BMP180;54238;52.278;21.056;2023-10-19T01:51:37;99906.20;;;4.60
67353;BMP180;54238;52.278;21.056;2023-10-19T01:54:09;99901.60;;;4.50
67353;BMP180;54238;52.278;21.056;2023-10-19T01:56:39;99903.20;;;4.50
67353;BMP180;54238;52.278;21.056;2023-10-19T01:59:09;99900.60;;;4.40
67353;BMP180;54238;52.278;21.056;2023-10-19T02:01:36;99898.80;;;4.40
67353;BMP180;54238;52.278;21.056;2023-10-19T02:04:09;99897.40;;;4.30
67353;BMP180;54238;52.278;21.056;2023-10-19T02:06:39;99897.80;;;4.30
67353;BMP180;54238;52.278;21.056;2023-10-19T02:09:12;99897.40;;;4.30
67353;BMP180;54238;52.278;21.056;2023-10-19T02:11:55;99894.80;;;4.20
67353;BMP180;54238;52.278;21.056;2023-10-19T02:14:29;99895.60;;;4.18
67353;BMP180;54238;52.278;21.056;2023-10-19T02:17:01;99893.40;;;4.20
67353;BMP180;54238;52.278;21.056;2023-10-19T02:19:30;99893.60;;;4.18
67353;BMP180;54238;52.278;21.056;2023-10-19T02:22:04;99894.20;;;4.10
67353;BMP180;54238;52.278;21.056;2023-10-19T02:24:35;99893.80;;;4.10
67353;BMP180;54238;52.278;21.056;2023-10-19T02:27:08;99889.80;;;4.10
67353;BMP180;54238;52.278;21.056;2023-10-19T02:29:43;99889.00;;;4.10
67353;BMP180;54238;52.278;21.056;2023-10-19T02:32:10;99884.20;;;4.10
67353;BMP180;54238;52.278;21.056;2023-10-19T02:34:42;99879.60;;;4.00
67353;BMP180;54238;52.278;21.056;2023-10-19T02:37:12;99877.00;;;4.00
67353;BMP180;54238;52.278;21.056;2023-10-19T02:39:41;99880.80;;;4.00
67353;BMP180;54238;52.278;21.056;2023-10-19T02:42:10;99876.00;;;4.00
67353;BMP180;54238;52.278;21.056;2023-10-19T02:44:44;99873.40;;;3.90
67353;BMP180;54238;52.278;21.056;2023-10-19T02:47:13;99873.20;;;3.90
67353;BMP180;54238;52.278;21.056;2023-10-19T02:49:44;99871.60;;;3.90
67353;BMP180;54238;52.278;21.056;2023-10-19T02:52:25;99869.20;;;3.90
67353;BMP180;54238;52.278;21.056;2023-10-19T02:54:56;99863.40;;;3.90
67353;BMP180;54238;52.278;21.056;2023-10-19T02:57:27;99862.80;;;3.90
67353;BMP180;54238;52.278;21.056;2023-10-19T02:59:57;99862.40;;;3.90
67353;BMP180;54238;52.278;21.056;2023-10-19T03:02:38;99855.20;;;3.90
67353;BMP180;54238;52.278;21.056;2023-10-19T03:05:09;99854.40;;;3.92
67353;BMP180;54238;52.278;21.056;2023-10-19T03:07:44;99855.00;;;4.00
67353;BMP180;54238;52.278;21.056;2023-10-19T03:10:18;99842.20;;;4.00
67353;BMP180;54238;52.278;21.056;2023-10-19T03:13:01;99836.40;;;4.00
67353;BMP180;54238;52.278;21.056;2023-10-19T03:15:33;99840.20;;;4.00
67353;BMP180;54238;52.278;21.056;2023-10-19T03:18:05;99835.00;;;3.96
67353;BMP180;54238;52.278;21.056;2023-10-19T03:20:37;99836.00;;;3.90
67353;BMP180;54238;52.278;21.056;2023-10-19T03:23:08;99831.00;;;3.90
67353;BMP180;54238;52.278;21.056;2023-10-19T03:25:37;99825.60;;;3.90
67353;BMP180;54238;52.278;21.056;2023-10-19T03:28:47;99822.60;;;3.90
67353;BMP180;54238;52.278;21.056;2023-10-19T03:31:26;99823.00;;;3.90
67353;BMP180;54238;52.278;21.056;2023-10-19T03:33:58;99823.60;;;3.90
67353;BMP180;54238;52.278;21.056;2023-10-19T03:36:34;99820.60;;;3.90
67353;BMP180;54238;52.278;21.056;2023-10-19T03:39:04;99818.80;;;3.90
67353;BMP180;54238;52.278;21.056;2023-10-19T03:41:52;99814.00;;;3.90
67353;BMP180;54238;52.278;21.056;2023-10-19T03:44:19;99809.60;;;3.80
67353;BMP180;54238;52.278;21.056;2023-10-19T03:46:53;99808.60;;;3.80
67353;BMP180;54238;52.278;21.056;2023-10-19T03:49:25;99807.00;;;3.80
67353;BMP180;54238;52.278;21.056;2023-10-19T03:52:00;99793.00;;;3.80
67353;BMP180;54238;52.278;21.056;2023-10-19T03:54:53;99785.40;;;3.80
67353;BMP180;54238;52.278;21.056;2023-10-19T03:57:24;99782.20;;;3.70
67353;BMP180;54238;52.278;21.056;2023-10-19T04:00:01;99772.60;;;3.70
67353;BMP180;54238;52.278;21.056;2023-10-19T04:02:33;99772.00;;;3.70
67353;BMP180;54238;52.278;21.056;2023-10-19T04:05:08;99766.80;;;3.70
67353;BMP180;54238;52.278;21.056;2023-10-19T04:07:37;99768.00;;;3.70
67353;BMP180;54238;52.278;21.056;2023-10-19T04:10:10;99759.00;;;3.64
67353;BMP180;54238;52.278;21.056;2023-10-19T04:12:58;99758.40;;;3.60
67353;BMP180;54238;52.278;21.056;2023-10-19T04:15:29;99752.60;;;3.54
67353;BMP180;54238;52.278;21.056;2023-10-19T04:18:00;99750.20;;;3.50
67353;BMP180;54238;52.278;21.056;2023-10-19T04:20:29;99745.60;;;3.48
67353;BMP180;54238;52.278;21.056;2023-10-19T04:23:05;99735.40;;;3.42
67353;BMP180;54238;52.278;21.056;2023-10-19T04:25:43;99728.40;;;3.44
67353;BMP180;54238;52.278;21.056;2023-10-19T04:28:14;99730.20;;;3.40
67353;BMP180;54238;52.278;21.056;2023-10-19T04:30:47;99727.60;;;3.40
67353;BMP180;54238;52.278;21.056;2023-10-19T04:33:15;99726.40;;;3.44
67353;BMP180;54238;52.278;21.056;2023-10-19T04:35:45;99723.40;;;3.50
67353;BMP180;54238;52.278;21.056;2023-10-19T04:38:14;99720.60;;;3.50
67353;BMP180;54238;52.278;21.056;2023-10-19T04:40:44;99716.40;;;3.52
67353;BMP180;54238;52.278;21.056;2023-10-19T04:43:14;99712.40;;;3.60
67353;BMP180;54238;52.278;21.056;2023-10-19T04:45:43;99709.40;;;3.60
67353;BMP180;54238;52.278;21.056;2023-10-19T04:48:18;99702.00;;;3.60
67353;BMP180;54238;52.278;21.056;2023-10-19T04:50:47;99707.40;;;3.70
67353;BMP180;54238;52.278;21.056;2023-10-19T04:53:17;99702.60;;;3.70
67353;BMP180;54238;52.278;21.056;2023-10-19T04:55:46;99695.20;;;3.64
67353;BMP180;54238;52.278;21.056;2023-10-19T04:58:20;99694.20;;;3.60
67353;BMP180;54238;52.278;21.056;2023-10-19T05:00:49;99691.80;;;3.60
67353;BMP180;54238;52.278;21.056;2023-10-19T05:03:16;99695.40;;;3.60
67353;BMP180;54238;52.278;21.056;2023-10-19T05:05:47;99697.20;;;3.52
67353;BMP180;54238;52.278;21.056;2023-10-19T05:08:17;99701.60;;;3.50
67353;BMP180;54238;52.278;21.056;2023-10-19T05:10:48;99701.40;;;3.52
67353;BMP180;54238;52.278;21.056;2023-10-19T05:13:20;99701.00;;;3.60
67353;BMP180;54238;52.278;21.056;2023-10-19T05:15:55;99696.20;;;3.56
67353;BMP180;54238;52.278;21.056;2023-10-19T05:18:26;99702.80;;;3.50
67353;BMP180;54238;52.278;21.056;2023-10-19T05:20:55;99700.80;;;3.50
67353;BMP180;54238;52.278;21.056;2023-10-19T05:23:24;99701.40;;;3.48
67353;BMP180;54238;52.278;21.056;2023-10-19T05:25:53;99701.80;;;3.40
67353;BMP180;54238;52.278;21.056;2023-10-19T05:28:25;99701.40;;;3.48
67353;BMP180;54238;52.278;21.056;2023-10-19T05:30:59;99691.60;;;3.40
67353;BMP180;54238;52.278;21.056;2023-10-19T05:33:33;99704.40;;;3.42
67353;BMP180;54238;52.278;21.056;2023-10-19T05:36:00;99700.80;;;3.50
67353;BMP180;54238;52.278;21.056;2023-10-19T05:38:28;99703.20;;;3.50
67353;BMP180;54238;52.278;21.056;2023-10-19T05:40:58;99700.40;;;3.52
67353;BMP180;54238;52.278;21.056;2023-10-19T05:43:28;99698.40;;;3.58
67353;BMP180;54238;52.278;21.056;2023-10-19T05:45:57;99700.60;;;3.60
67353;BMP180;54238;52.278;21.056;2023-10-19T05:48:26;99700.00;;;3.70
67353;BMP180;54238;52.278;21.056;2023-10-19T05:50:58;99702.60;;;3.70
67353;BMP180;54238;52.278;21.056;2023-10-19T05:53:30;99698.40;;;3.70
67353;BMP180;54238;52.278;21.056;2023-10-19T05:55:57;99700.40;;;3.70
67353;BMP180;54238;52.278;21.056;2023-10-19T05:58:30;99700.80;;;3.74
67353;BMP180;54238;52.278;21.056;2023-10-19T06:01:00;99703.40;;;3.78
67353;BMP180;54238;52.278;21.056;2023-10-19T06:03:30;99699.60;;;3.80
67353;BMP180;54238;52.278;21.056;2023-10-19T06:05:59;99693.00;;;3.80
67353;BMP180;54238;52.278;21.056;2023-10-19T06:08:27;99692.60;;;3.80
67353;BMP180;54238;52.278;21.056;2023-10-19T06:10:56;99688.40;;;3.80
67353;BMP180;54238;52.278;21.056;2023-10-19T06:13:25;99689.00;;;3.80
67353;BMP180;54238;52.278;21.056;2023-10-19T06:15:56;99683.00;;;3.90
67353;BMP180;54238;52.278;21.056;2023-10-19T06:18:24;99684.60;;;3.98
67353;BMP180;54238;52.278;21.056;2023-10-19T06:20:53;99684.40;;;3.98
67353;BMP180;54238;52.278;21.056;2023-10-19T06:23:26;99686.80;;;4.00
67353;BMP180;54238;52.278;21.056;2023-10-19T06:25:53;99681.20;;;4.10
67353;BMP180;54238;52.278;21.056;2023-10-19T06:28:25;99681.40;;;4.20
67353;BMP180;54238;52.278;21.056;2023-10-19T06:31:11;99678.80;;;4.30
67353;BMP180;54238;52.278;21.056;2023-10-19T06:33:41;99684.80;;;4.38
67353;BMP180;54238;52.278;21.056;2023-10-19T06:36:08;99681.20;;;4.42
67353;BMP180;54238;52.278;21.056;2023-10-19T06:38:41;99691.40;;;4.50
67353;BMP180;54238;52.278;21.056;2023-10-19T06:41:12;99682.60;;;4.58
67353;BMP180;54238;52.278;21.056;2023-10-19T06:43:46;99680.00;;;4.60
67353;BMP180;54238;52.278;21.056;2023-10-19T06:46:18;99679.00;;;4.64
67353;BMP180;54238;52.278;21.056;2023-10-19T06:48:47;99673.60;;;4.70
67353;BMP180;54238;52.278;21.056;2023-10-19T06:51:20;99668.80;;;4.78
67353;BMP180;54238;52.278;21.056;2023-10-19T06:53:50;99671.60;;;4.80
67353;BMP180;54238;52.278;21.056;2023-10-19T06:56:17;99664.20;;;4.90
67353;BMP180;54238;52.278;21.056;2023-10-19T06:58:46;99674.80;;;4.92
67353;BMP180;54238;52.278;21.056;2023-10-19T07:01:13;99676.60;;;5.00
67353;BMP180;54238;52.278;21.056;2023-10-19T07:03:45;99670.40;;;5.10
67353;BMP180;54238;52.278;21.056;2023-10-19T07:06:15;99665.80;;;5.20
67353;BMP180;54238;52.278;21.056;2023-10-19T07:08:47;99664.00;;;5.30
67353;BMP180;54238;52.278;21.056;2023-10-19T07:11:18;99665.20;;;5.40
67353;BMP180;54238;52.278;21.056;2023-10-19T07:13:47;99657.00;;;5.60
67353;BMP180;54238;52.278;21.056;2023-10-19T07:16:17;99656.60;;;5.70
67353;BMP180;54238;52.278;21.056;2023-10-19T07:18:49;99651.60;;;5.80
67353;BMP180;54238;52.278;21.056;2023-10-19T07:21:21;99652.80;;;5.90
67353;BMP180;54238;52.278;21.056;2023-10-19T07:23:49;99645.20;;;6.00
67353;BMP180;54238;52.278;21.056;2023-10-19T07:26:19;99640.60;;;6.10
67353;BMP180;54238;52.278;21.056;2023-10-19T07:28:50;99638.80;;;6.22
67353;BMP180;54238;52.278;21.056;2023-10-19T07:31:17;99646.00;;;6.40
67353;BMP180;54238;52.278;21.056;2023-10-19T07:33:48;99645.20;;;6.50
67353;BMP180;54238;52.278;21.056;2023-10-19T07:36:20;99637.60;;;6.60
67353;BMP180;54238;52.278;21.056;2023-10-19T07:38:50;99628.20;;;6.80
67353;BMP180;54238;52.278;21.056;2023-10-19T07:41:22;99615.20;;;7.00
67353;BMP180;54238;52.278;21.056;2023-10-19T07:43:53;99612.40;;;7.20
67353;BMP180;54238;52.278;21.056;2023-10-19T07:46:22;99614.40;;;7.40
67353;BMP180;54238;52.278;21.056;2023-10-19T07:48:49;99613.40;;;7.50
67353;BMP180;54238;52.278;21.056;2023-10-19T07:51:18;99617.20;;;7.70
67353;BMP180;54238;52.278;21.056;2023-10-19T07:53:45;99618.20;;;7.80
67353;BMP180;54238;52.278;21.056;2023-10-19T07:56:13;99614.20;;;7.96
67353;BMP180;54238;52.278;21.056;2023-10-19T07:58:40;99607.60;;;8.10
67353;BMP180;54238;52.278;21.056;2023-10-19T08:01:09;99603.20;;;8.20
67353;BMP180;54238;52.278;21.056;2023-10-19T08:03:38;99599.80;;;8.30
67353;BMP180;54238;52.278;21.056;2023-10-19T08:06:06;99600.20;;;8.40
67353;BMP180;54238;52.278;21.056;2023-10-19T08:08:34;99606.80;;;8.60
67353;BMP180;54238;52.278;21.056;2023-10-19T08:11:04;99595.00;;;8.70
67353;BMP180;54238;52.278;21.056;2023-10-19T08:13:32;99592.00;;;8.78
67353;BMP180;54238;52.278;21.056;2023-10-19T08:16:06;99586.20;;;8.88
67353;BMP180;54238;52.278;21.056;2023-10-19T08:18:35;99590.60;;;8.90
67353;BMP180;54238;52.278;21.056;2023-10-19T08:21:05;99588.60;;;9.06
67353;BMP180;54238;52.278;21.056;2023-10-19T08:23:32;99593.00;;;9.20
67353;BMP180;54238;52.278;21.056;2023-10-19T08:26:02;99583.40;;;9.38
67353;BMP180;54238;52.278;21.056;2023-10-19T08:28:35;99575.80;;;9.50
67353;BMP180;54238;52.278;21.056;2023-10-19T08:31:09;99578.00;;;9.70
67353;BMP180;54238;52.278;21.056;2023-10-19T08:33:39;99569.40;;;9.90
67353;BMP180;54238;52.278;21.056;2023-10-19T08:36:17;99564.80;;;10.14
67353;BMP180;54238;52.278;21.056;2023-10-19T08:38:47;99550.60;;;10.40
67353;BMP180;54238;52.278;21.056;2023-10-19T08:41:15;99553.40;;;10.70
67353;BMP180;54238;52.278;21.056;2023-10-19T08:43:47;99549.60;;;10.90
67353;BMP180;54238;52.278;21.056;2023-10-19T08:46:18;99540.80;;;11.10
67353;BMP180;54238;52.278;21.056;2023-10-19T08:48:45;99539.40;;;11.24
67353;BMP180;54238;52.278;21.056;2023-10-19T08:51:17;99536.80;;;11.50
67353;BMP180;54238;52.278;21.056;2023-10-19T08:53:48;99533.80;;;11.80
67353;BMP180;54238;52.278;21.056;2023-10-19T08:56:18;99531.60;;;12.16
67353;BMP180;54238;52.278;21.056;2023-10-19T08:58:48;99529.40;;;12.50
67353;BMP180;54238;52.278;21.056;2023-10-19T09:01:20;99521.20;;;12.90
67353;BMP180;54238;52.278;21.056;2023-10-19T09:03:50;99523.00;;;13.20
67353;BMP180;54238;52.278;21.056;2023-10-19T09:06:23;99527.00;;;13.40
67353;BMP180;54238;52.278;21.056;2023-10-19T09:08:55;99520.80;;;13.52
67353;BMP180;54238;52.278;21.056;2023-10-19T09:11:30;99513.80;;;13.54
67353;BMP180;54238;52.278;21.056;2023-10-19T09:13:58;99506.80;;;13.60
67353;BMP180;54238;52.278;21.056;2023-10-19T09:16:30;99515.60;;;13.56
67353;BMP180;54238;52.278;21.056;2023-10-19T09:19:00;99511.00;;;13.60
67353;BMP180;54238;52.278;21.056;2023-10-19T09:21:34;99514.00;;;13.60
67353;BMP180;54238;52.278;21.056;2023-10-19T09:24:07;99509.80;;;13.70
67353;BMP180;54238;52.278;21.056;2023-10-19T09:26:38;99506.60;;;13.80
67353;BMP180;54238;52.278;21.056;2023-10-19T09:29:17;99489.20;;;14.00
67353;BMP180;54238;52.278;21.056;2023-10-19T09:31:46;99487.80;;;14.30
67353;BMP180;54238;52.278;21.056;2023-10-19T09:34:15;99479.40;;;14.40
67353;BMP180;54238;52.278;21.056;2023-10-19T09:36:47;99477.80;;;14.40
67353;BMP180;54238;52.278;21.056;2023-10-19T09:39:18;99475.00;;;14.40
67353;BMP180;54238;52.278;21.056;2023-10-19T09:41:46;99472.00;;;14.30
67353;BMP180;54238;52.278;21.056;2023-10-19T09:44:18;99457.60;;;14.16
67353;BMP180;54238;52.278;21.056;2023-10-19T09:47:00;99450.00;;;14.10
67353;BMP180;54238;52.278;21.056;2023-10-19T09:49:36;99446.00;;;14.00
67353;BMP180;54238;52.278;21.056;2023-10-19T09:52:07;99439.00;;;14.10
67353;BMP180;54238;52.278;21.056;2023-10-19T10:00:09;99424.00;;;14.20
67353;BMP180;54238;52.278;21.056;2023-10-19T10:02:54;99412.60;;;14.20
67353;BMP180;54238;52.278;21.056;2023-10-19T10:10:53;99412.00;;;14.90
67353;BMP180;54238;52.278;21.056;2023-10-19T10:15:55;99410.20;;;14.90
67353;BMP180;54238;52.278;21.056;2023-10-19T10:18:35;99405.60;;;14.80
67353;BMP180;54238;52.278;21.056;2023-10-19T10:21:12;99393.60;;;14.70
67353;BMP180;54238;52.278;21.056;2023-10-19T10:23:44;99387.00;;;14.70
67353;BMP180;54238;52.278;21.056;2023-10-19T10:26:16;99374.80;;;14.70
67353;BMP180;54238;52.278;21.056;2023-10-19T10:28:49;99381.20;;;14.50
67353;BMP180;54238;52.278;21.056;2023-10-19T10:31:42;99380.80;;;14.20
67353;BMP180;54238;52.278;21.056;2023-10-19T10:37:10;99366.40;;;13.90
67353;BMP180;54238;52.278;21.056;2023-10-19T10:39:41;99361.00;;;13.80
67353;BMP180;54238;52.278;21.056;2023-10-19T10:42:16;99362.00;;;13.70
67353;BMP180;54238;52.278;21.056;2023-10-19T10:44:50;99358.40;;;13.60
67353;BMP180;54238;52.278;21.056;2023-10-19T10:47:25;99358.00;;;13.50
67353;BMP180;54238;52.278;21.056;2023-10-19T10:50:02;99358.20;;;13.46
67353;BMP180;54238;52.278;21.056;2023-10-19T10:52:35;99350.00;;;13.40
67353;BMP180;54238;52.278;21.056;2023-10-19T10:55:13;99348.00;;;13.30
67353;BMP180;54238;52.278;21.056;2023-10-19T10:57:46;99340.80;;;13.20
67353;BMP180;54238;52.278;21.056;2023-10-19T11:00:17;99334.20;;;13.20
67353;BMP180;54238;52.278;21.056;2023-10-19T11:05:27;99323.20;;;13.10
67353;BMP180;54238;52.278;21.056;2023-10-19T11:10:50;99310.60;;;13.02
67353;BMP180;54238;52.278;21.056;2023-10-19T11:13:22;99305.80;;;13.00
67353;BMP180;54238;52.278;21.056;2023-10-19T11:15:55;99295.00;;;12.92
67353;BMP180;54238;52.278;21.056;2023-10-19T11:21:05;99285.00;;;12.98
67353;BMP180;54238;52.278;21.056;2023-10-19T11:26:15;99281.60;;;13.10
67353;BMP180;54238;52.278;21.056;2023-10-19T11:28:46;99280.60;;;13.30
67353;BMP180;54238;52.278;21.056;2023-10-19T11:31:24;99276.60;;;13.40
67353;BMP180;54238;52.278;21.056;2023-10-19T11:33:57;99268.40;;;13.40
67353;BMP180;54238;52.278;21.056;2023-10-19T11:36:25;99262.20;;;13.40
67353;BMP180;54238;52.278;21.056;2023-10-19T11:38:55;99260.80;;;13.40
67353;BMP180;54238;52.278;21.056;2023-10-19T11:41:22;99257.80;;;13.50
67353;BMP180;54238;52.278;21.056;2023-10-19T11:43:54;99258.80;;;13.50
67353;BMP180;54238;52.278;21.056;2023-10-19T11:46:21;99248.60;;;13.50
67353;BMP180;54238;52.278;21.056;2023-10-19T11:48:52;99249.20;;;13.50
67353;BMP180;54238;52.278;21.056;2023-10-19T11:51:19;99245.80;;;13.40
67353;BMP180;54238;52.278;21.056;2023-10-19T11:53:52;99248.00;;;13.40
67353;BMP180;54238;52.278;21.056;2023-10-19T11:56:22;99243.20;;;13.30
67353;BMP180;54238;52.278;21.056;2023-10-19T11:58:57;99241.20;;;13.20
67353;BMP180;54238;52.278;21.056;2023-10-19T12:01:28;99229.20;;;13.10
67353;BMP180;54238;52.278;21.056;2023-10-19T12:03:58;99232.40;;;13.10
67353;BMP180;54238;52.278;21.056;2023-10-19T12:06:29;99243.80;;;13.00
67353;BMP180;54238;52.278;21.056;2023-10-19T12:08:58;99250.20;;;12.98
67353;BMP180;54238;52.278;21.056;2023-10-19T12:11:43;99250.80;;;12.90
67353;BMP180;54238;52.278;21.056;2023-10-19T12:14:17;99240.60;;;12.90
67353;BMP180;54238;52.278;21.056;2023-10-19T12:16:47;99245.20;;;12.90
67353;BMP180;54238;52.278;21.056;2023-10-19T12:19:21;99248.80;;;12.90
67353;BMP180;54238;52.278;21.056;2023-10-19T12:21:53;99247.80;;;12.88
67353;BMP180;54238;52.278;21.056;2023-10-19T12:24:23;99250.00;;;12.80
67353;BMP180;54238;52.278;21.056;2023-10-19T12:26:53;99247.60;;;12.80
67353;BMP180;54238;52.278;21.056;2023-10-19T12:29:22;99244.60;;;12.80
67353;BMP180;54238;52.278;21.056;2023-10-19T12:31:55;99237.20;;;12.80
67353;BMP180;54238;52.278;21.056;2023-10-19T12:34:22;99242.60;;;12.80
67353;BMP180;54238;52.278;21.056;2023-10-19T12:36:54;99242.00;;;12.80
67353;BMP180;54238;52.278;21.056;2023-10-19T12:39:25;99228.60;;;12.70
67353;BMP180;54238;52.278;21.056;2023-10-19T12:42:14;99221.20;;;12.70
67353;BMP180;54238;52.278;21.056;2023-10-19T12:44:42;99222.80;;;12.70
67353;BMP180;54238;52.278;21.056;2023-10-19T12:47:15;99218.80;;;12.70
67353;BMP180;54238;52.278;21.056;2023-10-19T12:49:48;99211.40;;;12.60
67353;BMP180;54238;52.278;21.056;2023-10-19T12:52:22;99204.00;;;12.60
67353;BMP180;54238;52.278;21.056;2023-10-19T12:54:52;99199.00;;;12.50
67353;BMP180;54238;52.278;21.056;2023-10-19T12:57:27;99195.20;;;12.48
67353;BMP180;54238;52.278;21.056;2023-10-19T12:59:54;99189.20;;;12.40
67353;BMP180;54238;52.278;21.056;2023-10-19T13:02:22;99185.60;;;12.40
67353;BMP180;54238;52.278;21.056;2023-10-19T13:04:52;99182.60;;;12.40
67353;BMP180;54238;52.278;21.056;2023-10-19T13:07:19;99181.00;;;12.30
67353;BMP180;54238;52.278;21.056;2023-10-19T13:09:56;99180.60;;;12.30
67353;BMP180;54238;52.278;21.056;2023-10-19T13:12:25;99180.80;;;12.30
67353;BMP180;54238;52.278;21.056;2023-10-19T13:14:52;99183.60;;;12.30
67353;BMP180;54238;52.278;21.056;2023-10-19T13:17:23;99183.40;;;12.20
67353;BMP180;54238;52.278;21.056;2023-10-19T13:19:54;99178.20;;;12.20
67353;BMP180;54238;52.278;21.056;2023-10-19T13:22:24;99182.20;;;12.10
67353;BMP180;54238;52.278;21.056;2023-10-19T13:24:54;99189.00;;;12.10
67353;BMP180;54238;52.278;21.056;2023-10-19T13:27:30;99189.60;;;12.00
67353;BMP180;54238;52.278;21.056;2023-10-19T13:30:01;99190.40;;;12.00
67353;BMP180;54238;52.278;21.056;2023-10-19T13:32:31;99176.00;;;11.94
67353;BMP180;54238;52.278;21.056;2023-10-19T13:35:03;99168.80;;;11.90
67353;BMP180;54238;52.278;21.056;2023-10-19T13:37:30;99165.00;;;11.90
67353;BMP180;54238;52.278;21.056;2023-10-19T13:40:00;99156.40;;;11.90
67353;BMP180;54238;52.278;21.056;2023-10-19T13:42:29;99148.20;;;11.90
67353;BMP180;54238;52.278;21.056;2023-10-19T13:44:59;99148.60;;;11.82
67353;BMP180;54238;52.278;21.056;2023-10-19T13:47:31;99145.80;;;11.80
67353;BMP180;54238;52.278;21.056;2023-10-19T13:50:00;99144.40;;;11.80
67353;BMP180;54238;52.278;21.056;2023-10-19T13:52:28;99144.20;;;11.80
67353;BMP180;54238;52.278;21.056;2023-10-19T13:54:58;99140.80;;;11.80
67353;BMP180;54238;52.278;21.056;2023-10-19T13:57:27;99131.20;;;11.80
67353;BMP180;54238;52.278;21.056;2023-10-19T13:59:59;99126.60;;;11.80
67353;BMP180;54238;52.278;21.056;2023-10-19T14:02:32;99120.40;;;11.80
67353;BMP180;54238;52.278;21.056;2023-10-19T14:04:59;99116.80;;;11.80
67353;BMP180;54238;52.278;21.056;2023-10-19T14:07:30;99117.40;;;11.80
67353;BMP180;54238;52.278;21.056;2023-10-19T14:10:03;99114.80;;;11.80
67353;BMP180;54238;52.278;21.056;2023-10-19T14:12:33;99109.20;;;11.80
67353;BMP180;54238;52.278;21.056;2023-10-19T14:15:02;99114.60;;;11.72
67353;BMP180;54238;52.278;21.056;2023-10-19T14:17:35;99120.80;;;11.76
67353;BMP180;54238;52.278;21.056;2023-10-19T14:20:05;99124.40;;;11.80
67353;BMP180;54238;52.278;21.056;2023-10-19T14:22:46;99132.00;;;11.80
67353;BMP180;54238;52.278;21.056;2023-10-19T14:25:16;99138.60;;;11.80
67353;BMP180;54238;52.278;21.056;2023-10-19T14:27:49;99133.40;;;11.80
67353;BMP180;54238;52.278;21.056;2023-10-19T14:30:24;99117.80;;;11.80
67353;BMP180;54238;52.278;21.056;2023-10-19T14:32:54;99102.80;;;11.80
67353;BMP180;54238;52.278;21.056;2023-10-19T14:35:24;99099.60;;;11.80
67353;BMP180;54238;52.278;21.056;2023-10-19T14:37:56;99104.40;;;11.80
67353;BMP180;54238;52.278;21.056;2023-10-19T14:40:28;99098.20;;;11.74
67353;BMP180;54238;52.278;21.056;2023-10-19T14:42:57;99084.20;;;11.70
67353;BMP180;54238;52.278;21.056;2023-10-19T14:45:30;99067.40;;;11.70
67353;BMP180;54238;52.278;21.056;2023-10-19T14:47:59;99067.80;;;11.70
67353;BMP180;54238;52.278;21.056;2023-10-19T14:50:32;99070.60;;;11.60
67353;BMP180;54238;52.278;21.056;2023-10-19T14:52:59;99058.40;;;11.50
67353;BMP180;54238;52.278;21.056;2023-10-19T14:55:29;99062.60;;;11.50
67353;BMP180;54238;52.278;21.056;2023-10-19T14:57:58;99060.60;;;11.44
67353;BMP180;54238;52.278;21.056;2023-10-19T15:00:29;99055.40;;;11.40